sensor_id;sensor_type;location;lat;lon;timestamp;temperature;humidity
19646;DHT22;9971;52.446;13.452;2023-07-22T00:04:18;15.10;99.90
19646;DHT22;9971;52.446;13.452;2023-07-22T00:09:21;15.10;99.90
19646;DHT22;9971;52.446;13.452;2023-07-22T00:14:23;15.10;99.90
19646;DHT22;9971;52.446;13.452;2023-07-22T00:19:26;15.00;99.90
19646;DHT22;9971;52.446;13.452;2023-07-22T00:24:28;15.00;99.90
19646;DHT22;9971;52.446;13.452;2023-07-22T00:29:31;15.10;99.90
19646;DHT22;9971;52.446;13.452;2023-07-22T00:34:33;15.10;99.90
19646;DHT22;9971;52.446;13.452;2023-07-22T00:39:36;15.10;99.90
19646;DHT22;9971;52.446;13.452;2023-07-22T00:44:38;15.20;99.90
19646;DHT22;9971;52.446;13.452;2023-07-22T00:49:40;15.20;99.90
19646;DHT22;9971;52.446;13.452;2023-07-22T00:54:42;15.20;99.90
19646;DHT22;9971;52.446;13.452;2023-07-22T00:59:44;15.30;99.90
19646;DHT22;9971;52.446;13.452;2023-07-22T01:04:46;15.40;99.90
19646;DHT22;9971;52.446;13.452;2023-07-22T01:09:49;15.40;99.90
19646;DHT22;9971;52.446;13.452;2023-07-22T01:14:51;15.40;99.90
19646;DHT22;9971;52.446;13.452;2023-07-22T01:19:53;15.50;99.90
19646;DHT22;9971;52.446;13.452;2023-07-22T01:24:55;15.60;99.90
19646;DHT22;9971;52.446;13.452;2023-07-22T01:29:58;15.60;99.90
19646;DHT22;9971;52.446;13.452;2023-07-22T01:35:00;15.60;99.90
19646;DHT22;9971;52.446;13.452;2023-07-22T01:40:02;15.60;99.90
19646;DHT22;9971;52.446;13.452;2023-07-22T01:45:05;15.70;99.90
19646;DHT22;9971;52.446;13.452;2023-07-22T01:50:08;15.80;99.90
19646;DHT22;9971;52.446;13.452;2023-07-22T01:55:10;15.80;99.90
19646;DHT22;9971;52.446;13.452;2023-07-22T02:00:13;15.80;99.90
19646;DHT22;9971;52.446;13.452;2023-07-22T02:05:16;15.80;99.90
19646;DHT22;9971;52.446;13.452;2023-07-22T02:10:19;15.90;99.90
19646;DHT22;9971;52.446;13.452;2023-07-22T02:15:21;15.90;99.90
19646;DHT22;9971;52.446;13.452;2023-07-22T02:20:23;15.90;99.90
19646;DHT22;9971;52.446;13.452;2023-07-22T02:25:25;15.90;99.90
19646;DHT22;9971;52.446;13.452;2023-07-22T02:30:29;16.00;99.90
19646;DHT22;9971;52.446;13.452;2023-07-22T02:35:32;16.00;99.90
19646;DHT22;9971;52.446;13.452;2023-07-22T02:40:35;16.00;99.90
19646;DHT22;9971;52.446;13.452;2023-07-22T02:45:37;15.90;99.90
19646;DHT22;9971;52.446;13.452;2023-07-22T02:50:39;15.90;99.90
19646;DHT22;9971;52.446;13.452;2023-07-22T02:55:41;15.90;99.90
19646;DHT22;9971;52.446;13.452;2023-07-22T03:00:43;15.80;99.90
19646;DHT22;9971;52.446;13.452;2023-07-22T03:05:46;15.80;99.90
19646;DHT22;9971;52.446;13.452;2023-07-22T03:10:48;15.80;99.90
19646;DHT22;9971;52.446;13.452;2023-07-22T03:15:50;15.70;99.90
19646;DHT22;9971;52.446;13.452;2023-07-22T03:20:52;15.70;99.90
19646;DHT22;9971;52.446;13.452;2023-07-22T03:25:55;15.70;99.90
19646;DHT22;9971;52.446;13.452;2023-07-22T03:30:58;15.70;99.90
19646;DHT22;9971;52.446;13.452;2023-07-22T03:36:00;15.60;99.90
19646;DHT22;9971;52.446;13.452;2023-07-22T03:41:02;15.60;99.90
19646;DHT22;9971;52.446;13.452;2023-07-22T03:46:04;15.60;99.90
19646;DHT22;9971;52.446;13.452;2023-07-22T03:51:06;15.60;99.90
19646;DHT22;9971;52.446;13.452;2023-07-22T03:56:09;15.60;99.90
19646;DHT22;9971;52.446;13.452;2023-07-22T04:01:11;15.60;99.90
19646;DHT22;9971;52.446;13.452;2023-07-22T04:06:14;15.60;99.90
19646;DHT22;9971;52.446;13.452;2023-07-22T04:11:16;15.70;99.90
19646;DHT22;9971;52.446;13.452;2023-07-22T04:16:18;15.70;99.90
19646;DHT22;9971;52.446;13.452;2023-07-22T04:21:20;15.60;99.90
19646;DHT22;9971;52.446;13.452;2023-07-22T04:26:23;15.60;99.90
19646;DHT22;9971;52.446;13.452;2023-07-22T04:31:25;15.60;99.90
19646;DHT22;9971;52.446;13.452;2023-07-22T04:36:27;15.60;99.90
19646;DHT22;9971;52.446;13.452;2023-07-22T04:41:30;15.70;99.90
19646;DHT22;9971;52.446;13.452;2023-07-22T04:46:32;15.70;99.90
19646;DHT22;9971;52.446;13.452;2023-07-22T04:51:35;15.80;99.90
19646;DHT22;9971;52.446;13.452;2023-07-22T04:56:37;15.80;99.90
19646;DHT22;9971;52.446;13.452;2023-07-22T05:01:40;15.80;99.90
19646;DHT22;9971;52.446;13.452;2023-07-22T05:06:42;15.90;99.90
19646;DHT22;9971;52.446;13.452;2023-07-22T05:11:44;15.90;99.90
19646;DHT22;9971;52.446;13.452;2023-07-22T05:16:47;16.00;99.90
19646;DHT22;9971;52.446;13.452;2023-07-22T05:21:49;16.10;99.90
19646;DHT22;9971;52.446;13.452;2023-07-22T05:26:51;16.10;99.90
19646;DHT22;9971;52.446;13.452;2023-07-22T05:31:54;16.20;99.90
19646;DHT22;9971;52.446;13.452;2023-07-22T05:36:56;16.30;99.90
19646;DHT22;9971;52.446;13.452;2023-07-22T05:41:58;16.30;99.90
19646;DHT22;9971;52.446;13.452;2023-07-22T05:47:01;16.40;99.90
19646;DHT22;9971;52.446;13.452;2023-07-22T05:52:04;16.50;99.90
19646;DHT22;9971;52.446;13.452;2023-07-22T05:57:06;16.70;99.90
19646;DHT22;9971;52.446;13.452;2023-07-22T06:02:08;16.70;99.90
19646;DHT22;9971;52.446;13.452;2023-07-22T06:07:11;16.80;99.90
19646;DHT22;9971;52.446;13.452;2023-07-22T06:12:13;16.90;99.90
19646;DHT22;9971;52.446;13.452;2023-07-22T06:17:15;17.00;99.90
19646;DHT22;9971;52.446;13.452;2023-07-22T06:22:17;17.00;99.90
19646;DHT22;9971;52.446;13.452;2023-07-22T06:27:20;17.10;99.90
19646;DHT22;9971;52.446;13.452;2023-07-22T06:32:22;17.20;99.90
19646;DHT22;9971;52.446;13.452;2023-07-22T06:37:25;17.30;99.90
19646;DHT22;9971;52.446;13.452;2023-07-22T06:42:27;17.30;99.90
19646;DHT22;9971;52.446;13.452;2023-07-22T06:47:31;17.50;99.90
19646;DHT22;9971;52.446;13.452;2023-07-22T06:52:33;17.60;99.90
19646;DHT22;9971;52.446;13.452;2023-07-22T06:57:36;17.70;99.90
19646;DHT22;9971;52.446;13.452;2023-07-22T07:02:37;17.70;99.90
19646;DHT22;9971;52.446;13.452;2023-07-22T07:07:41;17.90;99.90
19646;DHT22;9971;52.446;13.452;2023-07-22T07:12:44;18.20;99.90
19646;DHT22;9971;52.446;13.452;2023-07-22T07:17:48;18.20;99.90
19646;DHT22;9971;52.446;13.452;2023-07-22T07:22:50;18.20;99.90
19646;DHT22;9971;52.446;13.452;2023-07-22T07:27:53;18.20;99.90
19646;DHT22;9971;52.446;13.452;2023-07-22T07:32:55;18.20;99.90
19646;DHT22;9971;52.446;13.452;2023-07-22T07:37:58;18.30;99.90
19646;DHT22;9971;52.446;13.452;2023-07-22T07:43:00;18.40;99.90
19646;DHT22;9971;52.446;13.452;2023-07-22T07:48:02;18.60;99.90
19646;DHT22;9971;52.446;13.452;2023-07-22T07:53:05;18.70;99.90
19646;DHT22;9971;52.446;13.452;2023-07-22T07:58:08;18.80;99.90
19646;DHT22;9971;52.446;13.452;2023-07-22T08:03:10;19.00;99.90
19646;DHT22;9971;52.446;13.452;2023-07-22T08:08:12;19.00;99.90
19646;DHT22;9971;52.446;13.452;2023-07-22T08:13:15;19.20;99.90
19646;DHT22;9971;52.446;13.452;2023-07-22T08:18:18;19.40;99.90
19646;DHT22;9971;52.446;13.452;2023-07-22T08:23:20;19.50;99.90
19646;DHT22;9971;52.446;13.452;2023-07-22T08:28:23;19.60;99.90
19646;DHT22;9971;52.446;13.452;2023-07-22T08:33:25;19.60;99.90
19646;DHT22;9971;52.446;13.452;2023-07-22T08:38:28;19.60;99.90
19646;DHT22;9971;52.446;13.452;2023-07-22T08:43:31;19.80;99.90
19646;DHT22;9971;52.446;13.452;2023-07-22T08:48:33;20.00;99.90
19646;DHT22;9971;52.446;13.452;2023-07-22T08:53:36;20.20;99.90
19646;DHT22;9971;52.446;13.452;2023-07-22T08:58:42;20.30;99.90
19646;DHT22;9971;52.446;13.452;2023-07-22T09:03:45;20.20;99.90
19646;DHT22;9971;52.446;13.452;2023-07-22T09:08:47;20.20;99.90
19646;DHT22;9971;52.446;13.452;2023-07-22T09:13:52;20.40;99.90
19646;DHT22;9971;52.446;13.452;2023-07-22T09:18:58;20.50;99.90
19646;DHT22;9971;52.446;13.452;2023-07-22T09:24:02;20.40;99.90
19646;DHT22;9971;52.446;13.452;2023-07-22T09:29:05;20.30;99.90
19646;DHT22;9971;52.446;13.452;2023-07-22T09:34:09;20.40;99.90
19646;DHT22;9971;52.446;13.452;2023-07-22T09:39:11;20.40;99.90
19646;DHT22;9971;52.446;13.452;2023-07-22T09:44:14;20.70;99.90
19646;DHT22;9971;52.446;13.452;2023-07-22T09:49:17;20.90;99.90
19646;DHT22;9971;52.446;13.452;2023-07-22T09:54:19;21.00;99.90
19646;DHT22;9971;52.446;13.452;2023-07-22T09:59:20;21.10;99.90
19646;DHT22;9971;52.446;13.452;2023-07-22T10:04:25;21.30;99.90
19646;DHT22;9971;52.446;13.452;2023-07-22T10:09:28;21.20;99.90
19646;DHT22;9971;52.446;13.452;2023-07-22T10:14:30;21.20;99.90
19646;DHT22;9971;52.446;13.452;2023-07-22T10:19:35;21.20;99.90
19646;DHT22;9971;52.446;13.452;2023-07-22T10:24:39;21.30;99.90
19646;DHT22;9971;52.446;13.452;2023-07-22T10:29:41;21.50;99.90
19646;DHT22;9971;52.446;13.452;2023-07-22T10:34:44;22.00;99.90
19646;DHT22;9971;52.446;13.452;2023-07-22T10:39:46;21.90;99.90
19646;DHT22;9971;52.446;13.452;2023-07-22T10:44:49;21.90;99.90
19646;DHT22;9971;52.446;13.452;2023-07-22T10:49:52;21.90;99.90
19646;DHT22;9971;52.446;13.452;2023-07-22T10:54:55;22.10;99.90
19646;DHT22;9971;52.446;13.452;2023-07-22T10:59:58;22.50;99.90
19646;DHT22;9971;52.446;13.452;2023-07-22T11:05:01;22.80;99.90
19646;DHT22;9971;52.446;13.452;2023-07-22T11:10:13;22.80;99.90
19646;DHT22;9971;52.446;13.452;2023-07-22T11:15:16;22.80;99.90
19646;DHT22;9971;52.446;13.452;2023-07-22T11:20:21;22.60;99.70
19646;DHT22;9971;52.446;13.452;2023-07-22T11:25:24;22.70;99.10
19646;DHT22;9971;52.446;13.452;2023-07-22T11:30:26;22.60;99.90
19646;DHT22;9971;52.446;13.452;2023-07-22T11:35:28;22.40;99.90
19646;DHT22;9971;52.446;13.452;2023-07-22T11:40:34;22.50;99.90
19646;DHT22;9971;52.446;13.452;2023-07-22T11:45:39;22.40;99.70
19646;DHT22;9971;52.446;13.452;2023-07-22T11:50:43;22.90;99.50
19646;DHT22;9971;52.446;13.452;2023-07-22T11:55:46;23.30;98.10
19646;DHT22;9971;52.446;13.452;2023-07-22T12:00:49;23.40;97.90
19646;DHT22;9971;52.446;13.452;2023-07-22T12:05:52;24.00;95.30
19646;DHT22;9971;52.446;13.452;2023-07-22T12:10:57;24.10;94.40
19646;DHT22;9971;52.446;13.452;2023-07-22T12:16:01;23.70;94.00
19646;DHT22;9971;52.446;13.452;2023-07-22T12:21:03;23.40;95.10
19646;DHT22;9971;52.446;13.452;2023-07-22T12:26:05;23.60;95.30
19646;DHT22;9971;52.446;13.452;2023-07-22T12:31:07;24.00;94.50
19646;DHT22;9971;52.446;13.452;2023-07-22T12:36:11;24.20;93.60
19646;DHT22;9971;52.446;13.452;2023-07-22T12:41:14;24.10;93.10
19646;DHT22;9971;52.446;13.452;2023-07-22T12:46:30;24.50;92.00
19646;DHT22;9971;52.446;13.452;2023-07-22T12:51:43;24.70;92.30
19646;DHT22;9971;52.446;13.452;2023-07-22T12:56:49;24.80;90.70
19646;DHT22;9971;52.446;13.452;2023-07-22T13:01:51;25.10;90.10
19646;DHT22;9971;52.446;13.452;2023-07-22T13:06:54;24.90;90.10
19646;DHT22;9971;52.446;13.452;2023-07-22T13:11:57;24.50;90.50
19646;DHT22;9971;52.446;13.452;2023-07-22T13:16:59;24.50;90.10
19646;DHT22;9971;52.446;13.452;2023-07-22T13:22:02;24.30;90.20
19646;DHT22;9971;52.446;13.452;2023-07-22T13:27:04;24.40;90.90
19646;DHT22;9971;52.446;13.452;2023-07-22T13:32:08;24.30;90.50
19646;DHT22;9971;52.446;13.452;2023-07-22T13:37:11;24.50;91.10
19646;DHT22;9971;52.446;13.452;2023-07-22T13:42:15;24.80;91.00
19646;DHT22;9971;52.446;13.452;2023-07-22T13:47:18;25.20;89.60
19646;DHT22;9971;52.446;13.452;2023-07-22T13:52:22;25.00;89.80
19646;DHT22;9971;52.446;13.452;2023-07-22T13:57:25;24.70;88.00
19646;DHT22;9971;52.446;13.452;2023-07-22T14:02:28;24.80;89.00
19646;DHT22;9971;52.446;13.452;2023-07-22T14:07:31;25.10;88.00
19646;DHT22;9971;52.446;13.452;2023-07-22T14:12:35;25.20;88.10
19646;DHT22;9971;52.446;13.452;2023-07-22T14:17:36;25.50;87.40
19646;DHT22;9971;52.446;13.452;2023-07-22T14:22:39;25.40;84.40
19646;DHT22;9971;52.446;13.452;2023-07-22T14:27:42;25.20;84.30
19646;DHT22;9971;52.446;13.452;2023-07-22T14:32:44;25.20;84.30
19646;DHT22;9971;52.446;13.452;2023-07-22T14:37:48;25.20;85.30
19646;DHT22;9971;52.446;13.452;2023-07-22T14:42:51;25.00;83.60
19646;DHT22;9971;52.446;13.452;2023-07-22T14:47:56;24.80;86.40
19646;DHT22;9971;52.446;13.452;2023-07-22T14:52:59;24.70;85.30
19646;DHT22;9971;52.446;13.452;2023-07-22T14:58:02;24.50;86.30
19646;DHT22;9971;52.446;13.452;2023-07-22T15:03:05;24.40;87.60
19646;DHT22;9971;52.446;13.452;2023-07-22T15:08:08;24.30;88.60
19646;DHT22;9971;52.446;13.452;2023-07-22T15:13:11;24.30;90.00
19646;DHT22;9971;52.446;13.452;2023-07-22T15:18:14;24.10;88.00
19646;DHT22;9971;52.446;13.452;2023-07-22T15:23:18;24.00;88.50
19646;DHT22;9971;52.446;13.452;2023-07-22T15:28:20;23.80;89.40
19646;DHT22;9971;52.446;13.452;2023-07-22T15:33:23;23.40;90.20
19646;DHT22;9971;52.446;13.452;2023-07-22T15:38:25;23.30;90.70
19646;DHT22;9971;52.446;13.452;2023-07-22T15:43:28;23.20;90.90
19646;DHT22;9971;52.446;13.452;2023-07-22T15:48:30;23.30;91.30
19646;DHT22;9971;52.446;13.452;2023-07-22T15:53:32;24.00;90.90
19646;DHT22;9971;52.446;13.452;2023-07-22T15:58:35;24.80;89.10
19646;DHT22;9971;52.446;13.452;2023-07-22T16:03:38;25.10;88.30
19646;DHT22;9971;52.446;13.452;2023-07-22T16:08:40;25.50;86.80
19646;DHT22;9971;52.446;13.452;2023-07-22T16:13:44;25.40;85.70
19646;DHT22;9971;52.446;13.452;2023-07-22T16:18:46;25.60;86.80
19646;DHT22;9971;52.446;13.452;2023-07-22T16:23:49;25.60;83.80
19646;DHT22;9971;52.446;13.452;2023-07-22T16:28:51;25.60;84.60
19646;DHT22;9971;52.446;13.452;2023-07-22T16:33:54;25.50;83.50
19646;DHT22;9971;52.446;13.452;2023-07-22T16:38:56;25.50;84.10
19646;DHT22;9971;52.446;13.452;2023-07-22T16:44:00;25.60;84.10
19646;DHT22;9971;52.446;13.452;2023-07-22T16:49:02;25.40;82.70
19646;DHT22;9971;52.446;13.452;2023-07-22T16:54:04;25.00;84.50
19646;DHT22;9971;52.446;13.452;2023-07-22T16:59:07;24.70;85.90
19646;DHT22;9971;52.446;13.452;2023-07-22T17:04:09;24.60;85.50
19646;DHT22;9971;52.446;13.452;2023-07-22T17:09:12;24.40;87.70
19646;DHT22;9971;52.446;13.452;2023-07-22T17:14:14;24.50;86.10
19646;DHT22;9971;52.446;13.452;2023-07-22T17:19:17;24.50;86.30
19646;DHT22;9971;52.446;13.452;2023-07-22T17:24:19;24.20;87.50
19646;DHT22;9971;52.446;13.452;2023-07-22T17:29:22;24.20;87.60
19646;DHT22;9971;52.446;13.452;2023-07-22T17:34:24;24.20;86.50
19646;DHT22;9971;52.446;13.452;2023-07-22T17:39:26;24.40;86.90
19646;DHT22;9971;52.446;13.452;2023-07-22T17:44:29;24.50;86.10
19646;DHT22;9971;52.446;13.452;2023-07-22T17:49:31;24.40;86.30
19646;DHT22;9971;52.446;13.452;2023-07-22T17:54:34;24.30;86.50
19646;DHT22;9971;52.446;13.452;2023-07-22T17:59:36;24.10;87.30
19646;DHT22;9971;52.446;13.452;2023-07-22T18:04:39;24.20;87.30
19646;DHT22;9971;52.446;13.452;2023-07-22T18:09:41;24.30;87.80
19646;DHT22;9971;52.446;13.452;2023-07-22T18:14:44;24.30;86.60
19646;DHT22;9971;52.446;13.452;2023-07-22T18:19:47;24.00;89.20
19646;DHT22;9971;52.446;13.452;2023-07-22T18:24:49;23.80;88.00
19646;DHT22;9971;52.446;13.452;2023-07-22T18:29:51;23.60;90.60
19646;DHT22;9971;52.446;13.452;2023-07-22T18:34:54;23.30;92.90
19646;DHT22;9971;52.446;13.452;2023-07-22T18:39:57;23.00;93.30
19646;DHT22;9971;52.446;13.452;2023-07-22T18:44:59;22.70;97.10
19646;DHT22;9971;52.446;13.452;2023-07-22T18:50:02;22.40;98.10
19646;DHT22;9971;52.446;13.452;2023-07-22T18:55:05;22.20;97.90
19646;DHT22;9971;52.446;13.452;2023-07-22T19:00:08;21.90;99.90
19646;DHT22;9971;52.446;13.452;2023-07-22T19:05:11;21.70;99.90
19646;DHT22;9971;52.446;13.452;2023-07-22T19:10:13;21.50;99.90
19646;DHT22;9971;52.446;13.452;2023-07-22T19:15:16;21.30;99.90
19646;DHT22;9971;52.446;13.452;2023-07-22T19:20:18;21.10;99.90
19646;DHT22;9971;52.446;13.452;2023-07-22T19:25:20;20.90;99.90
19646;DHT22;9971;52.446;13.452;2023-07-22T19:30:25;20.80;99.90
19646;DHT22;9971;52.446;13.452;2023-07-22T19:35:27;20.60;99.90
19646;DHT22;9971;52.446;13.452;2023-07-22T19:40:30;20.30;99.90
19646;DHT22;9971;52.446;13.452;2023-07-22T19:45:32;20.20;99.90
19646;DHT22;9971;52.446;13.452;2023-07-22T19:50:35;20.10;99.90
19646;DHT22;9971;52.446;13.452;2023-07-22T19:55:38;20.00;99.90
19646;DHT22;9971;52.446;13.452;2023-07-22T20:00:40;19.90;99.90
19646;DHT22;9971;52.446;13.452;2023-07-22T20:05:43;19.80;99.90
19646;DHT22;9971;52.446;13.452;2023-07-22T20:10:48;19.70;99.90
19646;DHT22;9971;52.446;13.452;2023-07-22T20:15:50;19.60;99.90
19646;DHT22;9971;52.446;13.452;2023-07-22T20:20:52;19.50;99.90
19646;DHT22;9971;52.446;13.452;2023-07-22T20:25:55;19.50;99.90
19646;DHT22;9971;52.446;13.452;2023-07-22T20:30:59;19.40;99.90
19646;DHT22;9971;52.446;13.452;2023-07-22T20:36:01;19.40;99.90
19646;DHT22;9971;52.446;13.452;2023-07-22T20:41:05;19.40;99.90
19646;DHT22;9971;52.446;13.452;2023-07-22T20:46:06;19.30;99.90
19646;DHT22;9971;52.446;13.452;2023-07-22T20:51:09;19.30;99.90
19646;DHT22;9971;52.446;13.452;2023-07-22T20:56:12;19.20;99.90
19646;DHT22;9971;52.446;13.452;2023-07-22T21:01:14;19.10;99.90
19646;DHT22;9971;52.446;13.452;2023-07-22T21:06:16;19.10;99.90
19646;DHT22;9971;52.446;13.452;2023-07-22T21:11:20;19.10;99.90
19646;DHT22;9971;52.446;13.452;2023-07-22T21:16:22;19.00;99.90
19646;DHT22;9971;52.446;13.452;2023-07-22T21:21:24;19.00;99.90
19646;DHT22;9971;52.446;13.452;2023-07-22T21:26:28;19.10;99.90
19646;DHT22;9971;52.446;13.452;2023-07-22T21:31:31;19.10;99.90
19646;DHT22;9971;52.446;13.452;2023-07-22T21:36:32;19.20;99.90
19646;DHT22;9971;52.446;13.452;2023-07-22T21:41:36;19.40;99.90
19646;DHT22;9971;52.446;13.452;2023-07-22T21:46:39;19.40;99.90
19646;DHT22;9971;52.446;13.452;2023-07-22T21:51:42;19.40;99.90
19646;DHT22;9971;52.446;13.452;2023-07-22T21:56:44;19.40;99.90
19646;DHT22;9971;52.446;13.452;2023-07-22T22:01:46;19.30;99.90
19646;DHT22;9971;52.446;13.452;2023-07-22T22:06:49;19.20;99.90
19646;DHT22;9971;52.446;13.452;2023-07-22T22:11:51;19.20;99.90
19646;DHT22;9971;52.446;13.452;2023-07-22T22:16:54;19.20;99.90
19646;DHT22;9971;52.446;13.452;2023-07-22T22:21:56;19.20;99.90
19646;DHT22;9971;52.446;13.452;2023-07-22T22:26:58;19.30;99.90
19646;DHT22;9971;52.446;13.452;2023-07-22T22:32:01;19.30;99.90
19646;DHT22;9971;52.446;13.452;2023-07-22T22:37:03;19.30;99.90
19646;DHT22;9971;52.446;13.452;2023-07-22T22:42:08;19.30;99.90
19646;DHT22;9971;52.446;13.452;2023-07-22T22:47:10;19.30;99.90
19646;DHT22;9971;52.446;13.452;2023-07-22T22:52:13;19.40;99.90
19646;DHT22;9971;52.446;13.452;2023-07-22T22:57:17;19.40;99.90
19646;DHT22;9971;52.446;13.452;2023-07-22T23:02:20;19.40;99.90
19646;DHT22;9971;52.446;13.452;2023-07-22T23:07:22;19.40;99.90
19646;DHT22;9971;52.446;13.452;2023-07-22T23:12:26;19.30;99.90
19646;DHT22;9971;52.446;13.452;2023-07-22T23:17:28;19.30;99.90
19646;DHT22;9971;52.446;13.452;2023-07-22T23:22:32;19.30;99.90
19646;DHT22;9971;52.446;13.452;2023-07-22T23:27:38;19.20;99.90
19646;DHT22;9971;52.446;13.452;2023-07-22T23:32:41;19.20;99.90
19646;DHT22;9971;52.446;13.452;2023-07-22T23:37:44;19.10;99.90
19646;DHT22;9971;52.446;13.452;2023-07-22T23:42:47;19.00;99.90
19646;DHT22;9971;52.446;13.452;2023-07-22T23:47:49;19.00;99.90
19646;DHT22;9971;52.446;13.452;2023-07-22T23:52:53;18.90;99.90
19646;DHT22;9971;52.446;13.452;2023-07-22T23:57:56;18.80;99.90
